Flugplatz Nardt

Für EDAT sind keine METAR/TAF Berichte vorhanden.
Es werden die Flugwettermeldungen vom Flugplatz Dresden in 46 km Entfernung angezeigt.

Bericht für EDDC

vom 30.09. um 21:20 UTC

Wind 8 kt aus 190°

Sichtweite 10 km oder mehr

gute Sicht, keine Wolken < 5000 ft, keine CB, keine Wettererscheinungen (CAVOK)

Temperatur 9.0°C

Taupunkt 6.0°C

Luftfeuchtigkeit 81%

Luftdruck 1012 hPa

EDDC 302120Z AUTO 19008KT CAVOK 09/06 Q1012

Prognose für EDDC

vom 30.09. um 17:00 UTC

Zwischen 18:00 UTC und 06:00 UTC

Wind 7 kt aus 160°

Sichtweite 10 km oder mehr

keine signifikanten Wettererscheinungen

keine Wolken


Am 01.10. zwischen 06:00 und 09:00 UTC übergehend zu

Wind 12 kt aus 190°

Sichtweite 10 km oder mehr

keine signifikanten Wettererscheinungen

keine Wolken


Am 01.10. zwischen 10:00 UTC und 17:00 UTC zeitweise mit einer Wahrscheinlichkeit von 30%

Regen


Am 01.10. zwischen 12:00 und 15:00 UTC übergehend zu

Wind 15 kt aus 220° in Böen 25 kt

Sichtweite 10 km oder mehr

keine signifikanten Wettererscheinungen

keine Wolken

TAF EDDC 301700Z 3018/0118 16007KT CAVOK BECMG 0106/0109 19012KT PROB30 TEMPO 0110/0117 RA BECMG 0112/0115 22015G25KT
Impressum